createdAt,value
2016-12-12T00:00:40.916Z,0
2016-12-12T00:01:41.245Z,0
2016-12-12T00:02:41.278Z,0
2016-12-12T00:03:41.007Z,0
2016-12-12T00:04:40.726Z,0
2016-12-12T00:05:41.049Z,0
2016-12-12T00:06:41.389Z,0
2016-12-12T00:07:41.123Z,0
2016-12-12T00:08:41.159Z,0
2016-12-12T00:09:41.494Z,0
2016-12-12T00:10:41.496Z,0
2016-12-12T00:11:41.530Z,0
2016-12-12T00:12:41.557Z,0
2016-12-12T00:13:41.595Z,0
2016-12-12T00:14:41.343Z,0
2016-12-12T00:15:41.652Z,0
2016-12-12T00:16:41.389Z,0
2016-12-12T00:17:41.401Z,0
2016-12-12T00:18:41.438Z,0
2016-12-12T00:19:41.146Z,0
2016-12-12T00:20:41.783Z,0
2016-12-12T00:21:41.804Z,0
2016-12-12T00:22:41.233Z,0
2016-12-12T00:23:41.558Z,0
2016-12-12T00:24:41.906Z,0
2016-12-12T00:25:41.324Z,0
2016-12-12T00:26:41.348Z,0
2016-12-12T00:27:41.676Z,0
2016-12-12T00:28:41.999Z,0
2016-12-12T00:29:42.023Z,0
2016-12-12T00:30:41.795Z,0
2016-12-12T00:31:42.084Z,0
2016-12-12T00:32:42.113Z,0
2016-12-12T00:33:42.150Z,0
2016-12-12T00:34:41.582Z,0
2016-12-12T00:35:41.303Z,0
2016-12-12T00:36:42.224Z,0
2016-12-12T00:37:42.257Z,0
2016-12-12T00:38:41.973Z,0
2016-12-12T00:39:42.014Z,0
2016-12-12T00:40:42.339Z,0
2016-12-12T00:41:42.072Z,0
2016-12-12T00:42:41.800Z,0
2016-12-12T00:43:42.131Z,0
2016-12-12T00:44:42.474Z,0
2016-12-12T00:45:42.179Z,0
2016-12-12T00:46:42.219Z,0
2016-12-12T00:47:42.224Z,0
2016-12-12T00:48:42.293Z,0
2016-12-12T00:49:41.978Z,0
2016-12-12T00:50:42.611Z,0
2016-12-12T00:51:41.744Z,0
2016-12-12T00:52:42.384Z,0
2016-12-12T00:53:42.715Z,0
2016-12-12T00:54:42.737Z,0
2016-12-12T00:55:42.455Z,0
2016-12-12T00:56:42.779Z,0
2016-12-12T00:57:42.800Z,0
2016-12-12T00:58:42.540Z,0
2016-12-12T00:59:42.870Z,0
2016-12-12T01:00:42.299Z,0
2016-12-12T01:01:42.950Z,0
2016-12-12T01:02:42.056Z,0
2016-12-12T01:03:42.676Z,0
2016-12-12T01:04:42.998Z,0
2016-12-12T01:05:42.766Z,0
2016-12-12T01:06:43.063Z,0
2016-12-12T01:07:43.111Z,0
2016-12-12T01:08:43.130Z,0
2016-12-12T01:09:42.846Z,0
2016-12-12T01:10:42.582Z,0
2016-12-12T01:11:42.907Z,0
2016-12-12T01:12:42.936Z,0
2016-12-12T01:13:43.252Z,0
2016-12-12T01:14:42.974Z,0
2016-12-12T01:15:43.326Z,0
2016-12-12T01:16:43.051Z,0
2016-12-12T01:17:43.061Z,0
2016-12-12T01:18:43.106Z,0
2016-12-12T01:19:43.139Z,0
2016-12-12T01:20:43.154Z,0
2016-12-12T01:21:42.887Z,0
2016-12-12T01:22:42.610Z,0
2016-12-12T01:23:43.236Z,0
2016-12-12T01:24:43.577Z,0
2016-12-12T01:25:43.594Z,0
2016-12-12T01:26:43.627Z,0
2016-12-12T01:27:43.071Z,0
2016-12-12T01:28:43.072Z,0
2016-12-12T01:29:43.090Z,0
2016-12-12T01:30:43.740Z,0
2016-12-12T01:31:43.755Z,0
2016-12-12T01:32:43.493Z,0
2016-12-12T01:33:43.512Z,0
2016-12-12T01:34:43.557Z,0
2016-12-12T01:35:43.881Z,0
2016-12-12T01:36:43.602Z,0
2016-12-12T01:37:43.945Z,0
2016-12-12T01:38:43.964Z,0
2016-12-12T01:39:43.980Z,0
2016-12-12T01:40:43.400Z,0
2016-12-12T01:41:44.034Z,0
2016-12-12T01:42:44.066Z,0
2016-12-12T01:43:44.100Z,0
2016-12-12T01:44:43.840Z,0
2016-12-12T01:45:43.857Z,0
2016-12-12T01:46:43.581Z,0
2016-12-12T01:47:44.210Z,0
2016-12-12T01:48:43.958Z,0
2016-12-12T01:49:44.253Z,0
2016-12-12T01:50:43.984Z,0
2016-12-12T01:51:44.335Z,0
2016-12-12T01:52:44.346Z,0
2016-12-12T01:53:44.367Z,0
2016-12-12T01:54:44.403Z,0
2016-12-12T01:55:44.459Z,0
2016-12-12T01:56:44.157Z,0
2016-12-12T01:57:44.481Z,0
2016-12-12T01:58:44.251Z,0
2016-12-12T01:59:44.231Z,0
2016-12-12T02:00:44.563Z,0
2016-12-12T02:01:43.993Z,0
2016-12-12T02:02:44.333Z,0
2016-12-12T02:03:44.035Z,0
2016-12-12T02:04:44.682Z,0
2016-12-12T02:05:44.699Z,0
2016-12-12T02:06:44.115Z,0
2016-12-12T02:07:44.456Z,0
2016-12-12T02:08:44.788Z,0
2016-12-12T02:09:44.818Z,0
2016-12-12T02:10:44.239Z,0
2016-12-12T02:11:44.580Z,0
2016-12-12T02:12:44.304Z,0
2016-12-12T02:13:44.929Z,0
2016-12-12T02:14:44.949Z,0
2016-12-12T02:15:45.002Z,0
2016-12-12T02:16:44.707Z,0
2016-12-12T02:17:45.048Z,0
2016-12-12T02:18:45.077Z,0
2016-12-12T02:19:45.093Z,0
2016-12-12T02:20:44.818Z,0
2016-12-12T02:21:44.239Z,0
2016-12-12T02:22:44.872Z,0
2016-12-12T02:23:44.596Z,0
2016-12-12T02:24:44.937Z,0
2016-12-12T02:25:44.950Z,0
2016-12-12T02:26:45.299Z,0
2016-12-12T02:27:45.303Z,0
2016-12-12T02:28:44.736Z,0
2016-12-12T02:29:45.082Z,0
2016-12-12T02:30:45.102Z,0
2016-12-12T02:31:45.114Z,0
2016-12-12T02:32:44.851Z,0
2016-12-12T02:33:45.174Z,0
2016-12-12T02:34:44.905Z,0
2016-12-12T02:35:45.537Z,0
2016-12-12T02:36:44.966Z,0
2016-12-12T02:37:45.297Z,0
2016-12-12T02:38:45.624Z,0
2016-12-12T02:39:45.064Z,0
2016-12-12T02:40:45.061Z,0
2016-12-12T02:41:45.706Z,0
2016-12-12T02:42:45.411Z,0
2016-12-12T02:43:45.447Z,0
2016-12-12T02:44:45.488Z,0
2016-12-12T02:45:45.499Z,0
2016-12-12T02:46:45.538Z,0
2016-12-12T02:47:45.571Z,0
2016-12-12T02:48:45.583Z,0
2016-12-12T02:49:45.607Z,0
2016-12-12T02:50:45.640Z,0
2016-12-12T02:51:45.985Z,0
2016-12-12T02:52:45.698Z,0
2016-12-12T02:53:45.731Z,0
2016-12-12T02:54:45.764Z,0
2016-12-12T02:55:46.092Z,0
2016-12-12T02:56:46.104Z,0
2016-12-12T02:57:46.125Z,0
2016-12-12T02:58:46.166Z,0
2016-12-12T02:59:45.587Z,0
2016-12-12T03:00:46.232Z,0
2016-12-12T03:01:45.941Z,0
2016-12-12T03:02:45.973Z,0
2016-12-12T03:03:46.037Z,0
2016-12-12T03:04:46.322Z,0
2016-12-12T03:05:46.356Z,0
2016-12-12T03:06:46.372Z,0
2016-12-12T03:07:46.413Z,0
2016-12-12T03:08:46.441Z,0
2016-12-12T03:09:45.864Z,0
2016-12-12T03:10:46.191Z,0
2016-12-12T03:11:46.228Z,0
2016-12-12T03:12:46.561Z,0
2016-12-12T03:13:46.269Z,0
2016-12-12T03:14:46.597Z,0
2016-12-12T03:15:46.626Z,0
2016-12-12T03:16:46.659Z,0
2016-12-12T03:17:46.680Z,0
2016-12-12T03:18:46.725Z,0
2016-12-12T03:19:46.760Z,0
2016-12-12T03:20:46.482Z,0
2016-12-12T03:21:46.499Z,0
2016-12-12T03:22:46.828Z,0
2016-12-12T03:23:46.544Z,0
2016-12-12T03:24:46.864Z,0
2016-12-12T03:25:46.902Z,0
2016-12-12T03:26:46.650Z,0
2016-12-12T03:27:46.663Z,0
2016-12-12T03:28:46.696Z,0
2016-12-12T03:29:46.708Z,0
2016-12-12T03:30:47.041Z,0
2016-12-12T03:31:46.472Z,0
2016-12-12T03:32:46.486Z,0
2016-12-12T03:33:46.811Z,0
2016-12-12T03:34:46.840Z,0
2016-12-12T03:35:46.577Z,0
2016-12-12T03:36:46.950Z,0
2016-12-12T03:37:46.946Z,0
2016-12-12T03:38:46.976Z,0
2016-12-12T03:39:46.691Z,0
2016-12-12T03:40:47.316Z,0
2016-12-12T03:41:47.049Z,0
2016-12-12T03:42:47.381Z,0
2016-12-12T03:43:47.099Z,0
2016-12-12T03:44:47.127Z,0
2016-12-12T03:45:47.456Z,0
2016-12-12T03:46:47.189Z,0
2016-12-12T03:47:47.209Z,0
2016-12-12T03:48:47.230Z,0
2016-12-12T03:49:46.946Z,0
2016-12-12T03:50:47.291Z,0
2016-12-12T03:51:47.324Z,0
2016-12-12T03:52:47.316Z,0
2016-12-12T03:53:47.434Z,0
2016-12-12T03:54:47.092Z,0
2016-12-12T03:55:47.739Z,0
2016-12-12T03:56:47.452Z,0
2016-12-12T03:57:47.472Z,0
2016-12-12T03:58:47.808Z,0
2016-12-12T03:59:47.837Z,0
2016-12-12T04:00:47.578Z,0
2016-12-12T04:01:47.895Z,0
2016-12-12T04:02:47.928Z,0
2016-12-12T04:03:47.048Z,0
2016-12-12T04:04:47.668Z,0
2016-12-12T04:05:47.705Z,0
2016-12-12T04:06:47.734Z,0
2016-12-12T04:07:47.763Z,0
2016-12-12T04:08:48.088Z,0
2016-12-12T04:09:48.104Z,0
2016-12-12T04:10:47.249Z,0
2016-12-12T04:11:47.266Z,0
2016-12-12T04:12:48.191Z,0
2016-12-12T04:13:47.603Z,0
2016-12-12T04:14:48.246Z,0
2016-12-12T04:15:47.980Z,0
2016-12-12T04:16:48.293Z,0
2016-12-12T04:17:48.334Z,0
2016-12-12T04:18:48.370Z,0
2016-12-12T04:19:47.792Z,0
2016-12-12T04:20:47.508Z,0
2016-12-12T04:21:48.145Z,0
2016-12-12T04:22:48.465Z,0
2016-12-12T04:23:48.498Z,0
2016-12-12T04:24:47.910Z,0
2016-12-12T04:25:48.263Z,0
2016-12-12T04:26:48.272Z,0
2016-12-12T04:27:48.309Z,0
2016-12-12T04:28:48.343Z,0
2016-12-12T04:29:48.658Z,0
2016-12-12T04:30:48.378Z,0
2016-12-12T04:31:48.715Z,0
2016-12-12T04:32:48.736Z,0
2016-12-12T04:33:48.468Z,0
2016-12-12T04:34:48.497Z,0
2016-12-12T04:35:48.509Z,0
2016-12-12T04:36:47.946Z,0
2016-12-12T04:37:48.883Z,0
2016-12-12T04:38:48.607Z,0
2016-12-12T04:39:48.919Z,0
2016-12-12T04:40:48.651Z,0
2016-12-12T04:41:48.669Z,0
2016-12-12T04:42:48.397Z,0
2016-12-12T04:43:49.046Z,0
2016-12-12T04:44:48.463Z,0
2016-12-12T04:45:48.491Z,0
2016-12-12T04:46:48.828Z,0
2016-12-12T04:47:48.848Z,0
2016-12-12T04:48:48.901Z,0
2016-12-12T04:49:48.899Z,0
2016-12-12T04:50:48.934Z,0
2016-12-12T04:51:48.650Z,0
2016-12-12T04:52:48.979Z,0
2016-12-12T04:53:48.716Z,0
2016-12-12T04:54:49.044Z,0
2016-12-12T04:55:48.756Z,0
2016-12-12T04:56:49.382Z,0
2016-12-12T04:57:49.415Z,0
2016-12-12T04:58:49.151Z,0
2016-12-12T04:59:49.179Z,0
2016-12-12T05:00:49.192Z,0
2016-12-12T05:01:48.932Z,0
2016-12-12T05:02:49.261Z,0
2016-12-12T05:03:49.293Z,0
2016-12-12T05:04:49.294Z,0
2016-12-12T05:05:49.635Z,0
2016-12-12T05:06:49.064Z,0
2016-12-12T05:07:49.380Z,0
2016-12-12T05:08:49.745Z,0
2016-12-12T05:09:49.454Z,0
2016-12-12T05:10:49.463Z,0
2016-12-12T05:11:49.804Z,0
2016-12-12T05:12:49.524Z,0
2016-12-12T05:13:49.553Z,0
2016-12-12T05:14:49.885Z,0
2016-12-12T05:15:49.610Z,0
2016-12-12T05:16:49.344Z,0
2016-12-12T05:17:49.972Z,0
2016-12-12T05:18:49.697Z,0
2016-12-12T05:19:49.719Z,0
2016-12-12T05:20:49.430Z,0
2016-12-12T05:21:49.767Z,0
2016-12-12T05:22:50.091Z,0
2016-12-12T05:23:49.830Z,0
2016-12-12T05:24:50.173Z,0
2016-12-12T05:25:49.610Z,0
2016-12-12T05:26:49.915Z,0
2016-12-12T05:27:49.972Z,0
2016-12-12T05:28:49.976Z,0
2016-12-12T05:29:49.989Z,0
2016-12-12T05:30:50.317Z,0
2016-12-12T05:31:50.330Z,0
2016-12-12T05:32:50.087Z,0
2016-12-12T05:33:50.100Z,0
2016-12-12T05:34:50.425Z,0
2016-12-12T05:35:50.161Z,0
2016-12-12T05:36:49.886Z,0
2016-12-12T05:37:50.519Z,0
2016-12-12T05:38:49.628Z,0
2016-12-12T05:39:50.556Z,0
2016-12-12T05:40:50.597Z,0
2016-12-12T05:41:50.318Z,0
2016-12-12T05:42:50.043Z,0
2016-12-12T05:43:50.079Z,0
2016-12-12T05:44:50.108Z,0
2016-12-12T05:45:50.739Z,0
2016-12-12T05:46:50.445Z,0
2016-12-12T05:47:50.774Z,0
2016-12-12T05:48:50.507Z,0
2016-12-12T05:49:50.232Z,0
2016-12-12T05:50:50.869Z,0
2016-12-12T05:51:50.602Z,0
2016-12-12T05:52:50.627Z,0
2016-12-12T05:53:50.955Z,0
2016-12-12T05:54:50.977Z,0
2016-12-12T05:55:51.028Z,0
2016-12-12T05:56:50.730Z,0
2016-12-12T05:57:50.754Z,0
2016-12-12T05:58:50.478Z,0
2016-12-12T05:59:50.843Z,0
2016-12-12T06:00:50.828Z,0
2016-12-12T06:01:50.261Z,0
2016-12-12T06:02:50.899Z,0
2016-12-12T06:03:51.210Z,0
2016-12-12T06:04:50.952Z,0
2016-12-12T06:05:50.989Z,0
2016-12-12T06:06:50.997Z,0
2016-12-12T06:07:50.730Z,0
2016-12-12T06:08:50.749Z,0
2016-12-12T06:09:50.783Z,0
2016-12-12T06:10:51.422Z,0
2016-12-12T06:11:51.141Z,0
2016-12-12T06:12:51.169Z,0
2016-12-12T06:13:51.189Z,0
2016-12-12T06:14:51.527Z,0
2016-12-12T06:15:51.256Z,0
2016-12-12T06:16:51.569Z,0
2016-12-12T06:17:51.309Z,0
2016-12-12T06:18:50.736Z,0
2016-12-12T06:19:51.063Z,0
2016-12-12T06:20:51.385Z,0
2016-12-12T06:21:51.112Z,0
2016-12-12T06:22:50.837Z,0
2016-12-12T06:23:51.798Z,0
2016-12-12T06:24:51.191Z,0
2016-12-12T06:25:51.222Z,0
2016-12-12T06:26:51.252Z,0
2016-12-12T06:27:51.577Z,0
2016-12-12T06:28:51.906Z,0
2016-12-12T06:29:51.634Z,0
2016-12-12T06:30:51.672Z,0
2016-12-12T06:31:51.395Z,0
2016-12-12T06:32:51.721Z,0
2016-12-12T06:33:51.437Z,0
2016-12-12T06:34:51.766Z,0
2016-12-12T06:35:51.491Z,0
2016-12-12T06:36:51.820Z,0
2016-12-12T06:37:51.844Z,0
2016-12-12T06:38:51.893Z,0
2016-12-12T06:39:51.615Z,0
2016-12-12T06:40:52.245Z,0
2016-12-12T06:41:51.980Z,0
2016-12-12T06:42:51.996Z,0
2016-12-12T06:43:52.008Z,0
2016-12-12T06:44:51.737Z,0
2016-12-12T06:45:52.382Z,0
2016-12-12T06:46:52.402Z,0
2016-12-12T06:47:52.444Z,0
2016-12-12T06:48:51.556Z,0
2016-12-12T06:49:51.889Z,0
2016-12-12T06:50:51.610Z,0
2016-12-12T06:51:52.234Z,0
2016-12-12T06:52:51.967Z,0
2016-12-12T06:53:52.288Z,0
2016-12-12T06:54:52.616Z,4
2016-12-12T06:55:52.645Z,4
2016-12-12T06:56:52.374Z,0
2016-12-12T06:57:52.402Z,0
2016-12-12T06:58:52.132Z,4
2016-12-12T06:59:52.457Z,4
2016-12-12T07:00:52.195Z,8
2016-12-12T07:01:52.826Z,4
2016-12-12T07:02:52.554Z,8
2016-12-12T07:03:52.566Z,4
2016-12-12T07:04:52.596Z,8
2016-12-12T07:05:52.620Z,8
2016-12-12T07:06:52.649Z,8
2016-12-12T07:07:52.686Z,12
2016-12-12T07:08:52.133Z,12
2016-12-12T07:09:53.039Z,12
2016-12-12T07:10:52.470Z,16
2016-12-12T07:11:52.492Z,12
2016-12-12T07:12:53.138Z,16
2016-12-12T07:13:53.162Z,16
2016-12-12T07:14:52.883Z,20
2016-12-12T07:15:53.211Z,20
2016-12-12T07:16:52.928Z,20
2016-12-12T07:17:52.653Z,24
2016-12-12T07:18:52.994Z,28
2016-12-12T07:19:52.711Z,28
2016-12-12T07:20:53.056Z,32
2016-12-12T07:21:53.077Z,36
2016-12-12T07:22:53.110Z,36
2016-12-12T07:23:53.431Z,44
2016-12-12T07:24:53.172Z,44
2016-12-12T07:25:53.180Z,44
2016-12-12T07:26:53.516Z,48
2016-12-12T07:27:53.229Z,52
2016-12-12T07:28:53.266Z,48
2016-12-12T07:29:52.999Z,56
2016-12-12T07:30:53.643Z,56
2016-12-12T07:31:53.349Z,56
2016-12-12T07:32:53.377Z,56
2016-12-12T07:33:53.418Z,56
2016-12-12T07:34:53.730Z,60
2016-12-12T07:35:53.763Z,64
2016-12-12T07:36:53.488Z,76
2016-12-12T07:37:53.829Z,84
2016-12-12T07:38:53.886Z,88
2016-12-12T07:39:52.962Z,92
2016-12-12T07:40:53.911Z,96
2016-12-12T07:41:53.024Z,104
2016-12-12T07:42:53.969Z,108
2016-12-12T07:43:54.029Z,108
2016-12-12T07:44:53.399Z,112
2016-12-12T07:45:53.731Z,108
2016-12-12T07:46:53.780Z,108
2016-12-12T07:47:54.097Z,108
2016-12-12T07:48:54.129Z,108
2016-12-12T07:49:54.154Z,104
2016-12-12T07:50:53.879Z,108
2016-12-12T07:51:54.224Z,112
2016-12-12T07:52:53.961Z,112
2016-12-12T07:53:53.657Z,116
2016-12-12T07:54:53.695Z,120
2016-12-12T07:55:54.339Z,124
2016-12-12T07:56:54.064Z,128
2016-12-12T07:57:53.781Z,128
2016-12-12T07:58:54.110Z,120
2016-12-12T07:59:54.134Z,132
2016-12-12T08:00:54.462Z,144
2016-12-12T08:01:53.879Z,152
2016-12-12T08:02:54.228Z,152
2016-12-12T08:03:53.945Z,152
2016-12-12T08:04:54.286Z,160
2016-12-12T08:05:54.007Z,176
2016-12-12T08:06:54.032Z,172
2016-12-12T08:07:54.061Z,168
2016-12-12T08:08:54.389Z,184
2016-12-12T08:09:54.405Z,184
2016-12-12T08:10:54.726Z,184
2016-12-12T08:11:54.167Z,188
2016-12-12T08:12:54.493Z,188
2016-12-12T08:13:53.917Z,192
2016-12-12T08:14:54.863Z,200
2016-12-12T08:15:54.582Z,204
2016-12-12T08:16:54.016Z,208
2016-12-12T08:17:54.656Z,228
2016-12-12T08:18:54.669Z,252
2016-12-12T08:19:54.982Z,268
2016-12-12T08:20:54.710Z,284
2016-12-12T08:21:55.050Z,296
2016-12-12T08:22:54.779Z,304
2016-12-12T08:23:54.535Z,324
2016-12-12T08:24:54.542Z,332
2016-12-12T08:25:54.858Z,324
2016-12-12T08:26:54.590Z,324
2016-12-12T08:27:54.927Z,308
2016-12-12T08:28:54.955Z,296
2016-12-12T08:29:54.969Z,288
2016-12-12T08:30:54.993Z,292
2016-12-12T08:31:54.714Z,292
2016-12-12T08:32:54.758Z,296
2016-12-12T08:33:54.783Z,304
2016-12-12T08:34:54.816Z,308
2016-12-12T08:35:55.149Z,316
2016-12-12T08:36:55.178Z,332
2016-12-12T08:37:55.186Z,352
2016-12-12T08:38:55.220Z,372
2016-12-12T08:39:54.952Z,380
2016-12-12T08:40:54.677Z,384
2016-12-12T08:41:55.331Z,388
2016-12-12T08:42:55.034Z,396
2016-12-12T08:43:55.663Z,416
2016-12-12T08:44:55.697Z,440
2016-12-12T08:45:54.837Z,464
2016-12-12T08:46:55.753Z,480
2016-12-12T08:47:55.462Z,492
2016-12-12T08:48:55.506Z,500
2016-12-12T08:49:55.835Z,508
2016-12-12T08:50:55.548Z,516
2016-12-12T08:51:54.973Z,520
2016-12-12T08:54:03.954Z,516
2016-12-12T08:55:03.955Z,512
2016-12-12T08:56:03.688Z,512
2016-12-12T08:57:04.629Z,488
2016-12-12T08:58:04.335Z,488
2016-12-12T08:59:04.650Z,488
2016-12-12T09:00:04.699Z,500
2016-12-12T09:01:03.820Z,496
2016-12-12T09:02:04.448Z,496
2016-12-12T09:03:04.169Z,496
2016-12-12T09:04:04.506Z,504
2016-12-12T09:05:04.243Z,516
2016-12-12T09:06:04.255Z,528
2016-12-12T09:07:04.895Z,544
2016-12-12T09:08:04.621Z,556
2016-12-12T09:09:04.673Z,556
2016-12-12T09:10:04.982Z,560
2016-12-12T09:11:04.391Z,588
2016-12-12T09:12:04.423Z,592
2016-12-12T09:13:05.072Z,588
2016-12-12T09:14:05.105Z,608
2016-12-12T09:15:04.821Z,600
2016-12-12T09:16:04.826Z,608
2016-12-12T09:17:04.870Z,648
2016-12-12T09:18:04.900Z,664
2016-12-12T09:19:05.236Z,652
2016-12-12T09:20:05.269Z,664
2016-12-12T09:21:04.974Z,684
2016-12-12T09:22:05.343Z,692
2016-12-12T09:23:05.347Z,712
2016-12-12T09:24:04.456Z,724
2016-12-12T09:25:04.777Z,732
2016-12-12T09:26:04.809Z,736
2016-12-12T09:27:05.158Z,728
2016-12-12T09:28:04.888Z,704
2016-12-12T09:29:04.904Z,700
2016-12-12T09:30:04.927Z,700
2016-12-12T09:31:05.561Z,688
2016-12-12T09:32:05.298Z,672
2016-12-12T09:33:05.015Z,656
2016-12-12T09:34:05.339Z,616
2016-12-12T09:35:05.064Z,564
2016-12-12T09:36:05.392Z,556
2016-12-12T09:37:04.829Z,576
2016-12-12T09:38:05.154Z,612
2016-12-12T09:39:05.479Z,616
2016-12-12T09:40:04.912Z,616
2016-12-12T09:41:05.241Z,608
2016-12-12T09:42:05.269Z,608
2016-12-12T09:43:05.590Z,624
2016-12-12T09:44:05.918Z,624
2016-12-12T09:45:05.647Z,640
2016-12-12T09:46:05.372Z,636
2016-12-12T09:47:05.401Z,636
2016-12-12T09:48:05.426Z,616
2016-12-12T09:49:05.158Z,596
2016-12-12T09:50:06.103Z,612
2016-12-12T09:51:06.108Z,624
2016-12-12T09:52:05.540Z,648
2016-12-12T09:53:05.873Z,644
2016-12-12T09:54:05.594Z,628
2016-12-12T09:55:06.230Z,596
2016-12-12T09:56:05.351Z,604
2016-12-12T09:57:05.980Z,628
2016-12-12T09:58:05.405Z,652
2016-12-12T09:59:06.045Z,676
2016-12-12T10:00:05.755Z,688
2016-12-12T10:01:06.099Z,736
2016-12-12T10:02:05.808Z,756
2016-12-12T10:03:05.840Z,724
2016-12-12T10:04:05.873Z,720
2016-12-12T10:05:06.209Z,740
2016-12-12T10:06:06.259Z,748
2016-12-12T10:07:06.263Z,740
2016-12-12T10:08:06.288Z,728
2016-12-12T10:09:06.292Z,716
2016-12-12T10:10:06.645Z,704
2016-12-12T10:11:06.678Z,724
2016-12-12T10:12:05.818Z,804
2016-12-12T10:13:06.436Z,864
2016-12-12T10:14:06.456Z,852
2016-12-12T10:15:06.481Z,780
2016-12-12T10:16:06.213Z,720
2016-12-12T10:17:06.535Z,748
2016-12-12T10:18:06.560Z,820
2016-12-12T10:19:06.283Z,884
2016-12-12T10:20:06.312Z,944
2016-12-12T10:21:06.942Z,1012
2016-12-12T10:22:06.982Z,1024
2016-12-12T10:23:06.403Z,1088
2016-12-12T10:24:06.731Z,1180
2016-12-12T10:25:06.760Z,1228
2016-12-12T10:26:06.772Z,1260
2016-12-12T10:27:06.809Z,1292
2016-12-12T10:28:07.157Z,1296
2016-12-12T10:29:07.162Z,1248
2016-12-12T10:30:06.892Z,1216
2016-12-12T10:31:07.228Z,1136
2016-12-12T10:32:06.953Z,1100
2016-12-12T10:33:06.681Z,1144
2016-12-12T10:34:07.307Z,1132
2016-12-12T10:35:07.022Z,1128
2016-12-12T10:36:07.063Z,1028
2016-12-12T10:37:06.794Z,912
2016-12-12T10:38:07.113Z,844
2016-12-12T10:39:07.162Z,808
2016-12-12T10:40:07.175Z,840
2016-12-12T10:41:07.515Z,900
2016-12-12T10:42:07.228Z,928
2016-12-12T10:43:07.557Z,916
2016-12-12T10:44:07.577Z,940
2016-12-12T10:45:07.302Z,1000
2016-12-12T10:46:07.339Z,1176
2016-12-12T10:47:07.680Z,1464
2016-12-12T10:48:07.401Z,1580
2016-12-12T10:49:07.121Z,1512
2016-12-12T10:50:06.842Z,1440
2016-12-12T10:51:07.483Z,1368
2016-12-12T10:52:07.198Z,1392
2016-12-12T10:53:07.528Z,1348
2016-12-12T10:54:07.856Z,1200
2016-12-12T10:55:07.597Z,1032
2016-12-12T10:56:07.926Z,924
2016-12-12T10:57:07.346Z,840
2016-12-12T10:58:07.683Z,788
2016-12-12T10:59:07.704Z,788
2016-12-12T11:00:07.433Z,824
2016-12-12T11:01:08.068Z,844
2016-12-12T11:02:08.094Z,824
2016-12-12T11:03:07.815Z,784
2016-12-12T11:04:08.148Z,748
2016-12-12T11:05:07.560Z,732
2016-12-12T11:06:08.197Z,728
2016-12-12T11:07:08.141Z,744
2016-12-12T11:08:07.638Z,784
2016-12-12T11:09:07.972Z,868
2016-12-12T11:10:07.388Z,1004
2016-12-12T11:11:08.333Z,1164
2016-12-12T11:12:08.373Z,1288
2016-12-12T11:13:07.787Z,1384
2016-12-12T11:14:07.803Z,1448
2016-12-12T11:15:08.159Z,1492
2016-12-12T11:16:08.200Z,1460
2016-12-12T11:17:08.198Z,1384
2016-12-12T11:18:08.517Z,1324
2016-12-12T11:19:08.250Z,1300
2016-12-12T11:20:08.275Z,1280
2016-12-12T11:21:07.708Z,1264
2016-12-12T11:22:08.341Z,1260
2016-12-12T11:23:08.393Z,1264
2016-12-12T11:24:08.395Z,1264
2016-12-12T11:25:08.410Z,1288
2016-12-12T11:26:08.442Z,1316
2016-12-12T11:27:08.476Z,1308
2016-12-12T11:28:08.792Z,1244
2016-12-12T11:29:08.545Z,1064
2016-12-12T11:30:08.262Z,1000
2016-12-12T11:31:08.591Z,1028
2016-12-12T11:32:08.612Z,1040
2016-12-12T11:33:08.640Z,1036
2016-12-12T11:34:08.965Z,1036
2016-12-12T11:35:09.021Z,1072
2016-12-12T11:36:08.110Z,1100
2016-12-12T11:37:08.442Z,1020
2016-12-12T11:38:08.801Z,880
2016-12-12T11:39:08.504Z,872
2016-12-12T11:40:08.533Z,912
2016-12-12T11:41:08.858Z,952
2016-12-12T11:42:09.178Z,992
2016-12-12T11:43:09.215Z,1000
2016-12-12T11:44:09.256Z,1008
2016-12-12T11:45:08.952Z,1000
2016-12-12T11:46:09.005Z,1040
2016-12-12T11:47:09.031Z,1032
2016-12-12T11:48:08.754Z,1004
2016-12-12T11:49:09.088Z,956
2016-12-12T11:50:09.111Z,904
2016-12-12T11:51:09.424Z,772
2016-12-12T11:52:09.153Z,808
2016-12-12T11:53:09.198Z,892
2016-12-12T11:54:09.523Z,956
2016-12-12T11:55:09.248Z,1144
2016-12-12T11:56:09.280Z,1192
2016-12-12T11:57:09.001Z,1100
2016-12-12T11:58:09.325Z,964
2016-12-12T11:59:09.347Z,1060
2016-12-12T12:00:09.679Z,1032
2016-12-12T12:01:09.419Z,1088
2016-12-12T12:02:09.448Z,1068
2016-12-12T12:03:09.765Z,1024
2016-12-12T12:04:08.894Z,980
2016-12-12T12:05:09.536Z,1088
2016-12-12T12:06:09.247Z,1236
2016-12-12T12:07:09.571Z,1296
2016-12-12T12:08:09.900Z,1252
2016-12-12T12:09:09.945Z,1176
2016-12-12T12:10:09.966Z,1148
2016-12-12T12:11:09.091Z,1132
2016-12-12T12:12:09.419Z,1164
2016-12-12T12:13:09.444Z,1216
2016-12-12T12:14:09.774Z,1224
2016-12-12T12:15:10.109Z,1164
2016-12-12T12:16:10.130Z,1084
2016-12-12T12:17:09.543Z,1040
2016-12-12T12:18:09.892Z,1040
2016-12-12T12:19:09.904Z,1096
2016-12-12T12:20:09.953Z,1176
2016-12-12T12:21:09.670Z,1288
2016-12-12T12:22:09.984Z,1432
2016-12-12T12:23:10.319Z,1284
2016-12-12T12:24:10.357Z,1164
2016-12-12T12:25:10.376Z,1052
2016-12-12T12:26:10.401Z,1020
2016-12-12T12:27:10.429Z,1196
2016-12-12T12:28:10.170Z,1440
2016-12-12T12:29:10.191Z,1756
2016-12-12T12:30:09.899Z,1852
2016-12-12T12:31:09.932Z,1940
2016-12-12T12:32:10.572Z,1972
2016-12-12T12:33:10.601Z,1992
2016-12-12T12:34:10.638Z,2032
2016-12-12T12:35:10.682Z,2084
2016-12-12T12:36:10.380Z,2072
2016-12-12T12:37:10.720Z,1936
2016-12-12T12:38:10.124Z,1844
2016-12-12T12:39:10.441Z,1836
2016-12-12T12:40:10.798Z,1740
2016-12-12T12:41:10.822Z,1692
2016-12-12T12:42:10.543Z,1576
2016-12-12T12:43:10.564Z,1284
2016-12-12T12:44:10.893Z,1060
2016-12-12T12:45:10.941Z,1212
2016-12-12T12:46:10.646Z,1292
2016-12-12T12:47:10.971Z,1216
2016-12-12T12:48:11.015Z,1164
2016-12-12T12:49:10.436Z,1212
2016-12-12T12:50:11.080Z,1360
2016-12-12T12:51:11.094Z,1272
2016-12-12T12:52:11.126Z,1288
2016-12-12T12:53:10.848Z,1364
2016-12-12T12:54:10.574Z,1636
2016-12-12T12:55:10.906Z,2148
2016-12-12T12:56:10.934Z,1932
2016-12-12T12:57:11.257Z,1672
2016-12-12T12:58:11.310Z,1964
2016-12-12T12:59:11.047Z,1992
2016-12-12T13:00:11.052Z,2052
2016-12-12T13:01:11.072Z,1980
2016-12-12T13:02:11.093Z,1808
2016-12-12T13:03:11.109Z,1852
2016-12-12T13:04:11.144Z,1972
2016-12-12T13:05:11.474Z,2244
2016-12-12T13:06:11.511Z,2712
2016-12-12T13:07:11.228Z,2572
2016-12-12T13:08:11.593Z,2304
2016-12-12T13:09:11.302Z,2048
2016-12-12T13:10:11.622Z,2064
2016-12-12T13:11:11.048Z,2136
2016-12-12T13:12:11.664Z,2304
2016-12-12T13:13:11.712Z,2460
2016-12-12T13:14:11.725Z,2572
2016-12-12T13:15:11.462Z,2688
2016-12-12T13:16:11.799Z,2696
2016-12-12T13:17:11.519Z,2896
2016-12-12T13:18:11.236Z,3128
2016-12-12T13:19:11.561Z,3220
2016-12-12T13:20:11.619Z,3072
2016-12-12T13:21:11.926Z,2988
2016-12-12T13:22:11.647Z,2688
2016-12-12T13:23:11.983Z,2680
2016-12-12T13:24:11.716Z,2772
2016-12-12T13:25:11.425Z,2940
2016-12-12T13:26:11.454Z,2896
2016-12-12T13:27:12.094Z,2884
2016-12-12T13:28:12.147Z,2856
2016-12-12T13:29:11.851Z,2828
2016-12-12T13:30:11.852Z,2784
2016-12-12T13:31:12.201Z,2748
2016-12-12T13:32:12.242Z,2672
2016-12-12T13:33:11.659Z,2584
2016-12-12T13:34:12.295Z,2528
2016-12-12T13:35:12.308Z,2348
2016-12-12T13:36:12.024Z,2244
2016-12-12T13:37:11.758Z,2100
2016-12-12T13:38:11.790Z,1972
2016-12-12T13:39:12.439Z,1852
2016-12-12T13:40:11.847Z,1736
2016-12-12T13:41:12.203Z,1632
2016-12-12T13:42:11.901Z,1544
2016-12-12T13:43:12.252Z,1484
2016-12-12T13:44:12.558Z,1404
2016-12-12T13:45:12.583Z,1400
2016-12-12T13:46:12.315Z,1380
2016-12-12T13:47:12.648Z,1416
2016-12-12T13:48:12.721Z,1472
2016-12-12T13:49:12.403Z,1556
2016-12-12T13:50:12.727Z,1628
2016-12-12T13:51:12.451Z,1712
2016-12-12T13:52:12.171Z,1744
2016-12-12T13:53:12.808Z,1688
2016-12-12T13:54:12.529Z,1608
2016-12-12T13:55:12.874Z,1572
2016-12-12T13:56:12.283Z,1552
2016-12-12T13:57:12.624Z,1528
2016-12-12T13:58:12.053Z,1508
2016-12-12T13:59:12.676Z,1440
2016-12-12T14:00:13.006Z,1392
2016-12-12T14:01:12.730Z,1344
2016-12-12T14:02:13.047Z,1304
2016-12-12T14:03:12.795Z,1272
2016-12-12T14:04:13.125Z,1232
2016-12-12T14:05:12.558Z,1192
2016-12-12T14:06:13.178Z,1160
2016-12-12T14:07:12.895Z,1152
2016-12-12T14:08:12.929Z,1172
2016-12-12T14:09:12.948Z,1200
2016-12-12T14:10:13.276Z,1228
2016-12-12T14:11:13.002Z,1232